sensor_id;sensor_type;location;lat;lon;timestamp;temperature;humidity
42097;DHT22;27754;45.414;11.084;2023-12-07T00:00:33;2.30;94.50
42097;DHT22;27754;45.414;11.084;2023-12-07T00:03:00;2.20;94.60
42097;DHT22;27754;45.414;11.084;2023-12-07T00:05:27;2.30;94.70
42097;DHT22;27754;45.414;11.084;2023-12-07T00:07:54;2.20;94.70
42097;DHT22;27754;45.414;11.084;2023-12-07T00:10:21;2.20;94.60
42097;DHT22;27754;45.414;11.084;2023-12-07T00:12:48;2.20;94.60
42097;DHT22;27754;45.414;11.084;2023-12-07T00:15:15;2.20;94.50
42097;DHT22;27754;45.414;11.084;2023-12-07T00:17:43;2.20;94.40
42097;DHT22;27754;45.414;11.084;2023-12-07T00:20:10;2.00;94.30
42097;DHT22;27754;45.414;11.084;2023-12-07T00:22:37;2.00;94.00
42097;DHT22;27754;45.414;11.084;2023-12-07T00:25:05;1.90;94.00
42097;DHT22;27754;45.414;11.084;2023-12-07T00:27:32;1.90;93.90
42097;DHT22;27754;45.414;11.084;2023-12-07T00:29:59;1.80;93.90
42097;DHT22;27754;45.414;11.084;2023-12-07T00:32:26;1.80;94.00
42097;DHT22;27754;45.414;11.084;2023-12-07T00:34:54;1.80;94.00
42097;DHT22;27754;45.414;11.084;2023-12-07T00:37:21;1.80;94.10
42097;DHT22;27754;45.414;11.084;2023-12-07T00:39:48;1.90;94.20
42097;DHT22;27754;45.414;11.084;2023-12-07T00:42:15;1.80;94.20
42097;DHT22;27754;45.414;11.084;2023-12-07T00:44:42;1.90;94.20
42097;DHT22;27754;45.414;11.084;2023-12-07T00:47:09;1.90;94.30
42097;DHT22;27754;45.414;11.084;2023-12-07T00:49:39;1.90;94.40
42097;DHT22;27754;45.414;11.084;2023-12-07T00:52:07;1.90;94.30
42097;DHT22;27754;45.414;11.084;2023-12-07T00:54:34;1.90;94.20
42097;DHT22;27754;45.414;11.084;2023-12-07T00:57:01;1.90;94.30
42097;DHT22;27754;45.414;11.084;2023-12-07T00:59:29;1.90;94.40
42097;DHT22;27754;45.414;11.084;2023-12-07T01:02:04;1.90;94.30
42097;DHT22;27754;45.414;11.084;2023-12-07T01:04:32;1.80;94.00
42097;DHT22;27754;45.414;11.084;2023-12-07T01:07:00;1.70;93.90
42097;DHT22;27754;45.414;11.084;2023-12-07T01:09:27;1.50;93.30
42097;DHT22;27754;45.414;11.084;2023-12-07T01:11:54;1.50;93.70
42097;DHT22;27754;45.414;11.084;2023-12-07T01:14:21;1.60;93.90
42097;DHT22;27754;45.414;11.084;2023-12-07T01:16:48;1.50;93.90
42097;DHT22;27754;45.414;11.084;2023-12-07T01:19:15;1.50;93.90
42097;DHT22;27754;45.414;11.084;2023-12-07T01:21:42;1.40;93.70
42097;DHT22;27754;45.414;11.084;2023-12-07T01:24:09;1.30;93.50
42097;DHT22;27754;45.414;11.084;2023-12-07T01:26:42;1.40;93.80
42097;DHT22;27754;45.414;11.084;2023-12-07T01:29:09;1.30;93.80
42097;DHT22;27754;45.414;11.084;2023-12-07T01:31:36;1.30;93.80
42097;DHT22;27754;45.414;11.084;2023-12-07T01:34:03;1.10;92.90
42097;DHT22;27754;45.414;11.084;2023-12-07T01:36:30;1.00;92.60
42097;DHT22;27754;45.414;11.084;2023-12-07T01:38:58;0.90;92.40
42097;DHT22;27754;45.414;11.084;2023-12-07T01:41:25;0.90;92.40
42097;DHT22;27754;45.414;11.084;2023-12-07T01:43:52;0.80;92.20
42097;DHT22;27754;45.414;11.084;2023-12-07T01:46:19;0.70;92.00
42097;DHT22;27754;45.414;11.084;2023-12-07T01:48:47;0.70;92.20
42097;DHT22;27754;45.414;11.084;2023-12-07T01:51:18;0.70;92.40
42097;DHT22;27754;45.414;11.084;2023-12-07T01:53:47;0.80;92.60
42097;DHT22;27754;45.414;11.084;2023-12-07T01:56:15;0.80;92.70
42097;DHT22;27754;45.414;11.084;2023-12-07T01:58:43;0.90;92.90
42097;DHT22;27754;45.414;11.084;2023-12-07T02:01:11;0.90;93.00
42097;DHT22;27754;45.414;11.084;2023-12-07T02:03:40;1.00;93.20
42097;DHT22;27754;45.414;11.084;2023-12-07T02:06:07;1.10;93.40
42097;DHT22;27754;45.414;11.084;2023-12-07T02:08:38;1.20;93.50
42097;DHT22;27754;45.414;11.084;2023-12-07T02:11:09;1.30;93.60
42097;DHT22;27754;45.414;11.084;2023-12-07T02:13:40;1.40;93.70
42097;DHT22;27754;45.414;11.084;2023-12-07T02:16:13;1.50;93.60
42097;DHT22;27754;45.414;11.084;2023-12-07T02:18:48;1.50;93.50
42097;DHT22;27754;45.414;11.084;2023-12-07T02:21:38;1.50;93.40
42097;DHT22;27754;45.414;11.084;2023-12-07T02:24:08;1.60;93.40
42097;DHT22;27754;45.414;11.084;2023-12-07T02:26:38;1.60;93.30
42097;DHT22;27754;45.414;11.084;2023-12-07T02:29:05;1.50;93.10
42097;DHT22;27754;45.414;11.084;2023-12-07T02:31:32;1.50;93.20
42097;DHT22;27754;45.414;11.084;2023-12-07T02:34:00;1.40;93.30
42097;DHT22;27754;45.414;11.084;2023-12-07T02:36:28;1.40;93.40
42097;DHT22;27754;45.414;11.084;2023-12-07T02:38:58;1.40;93.30
42097;DHT22;27754;45.414;11.084;2023-12-07T02:41:25;1.40;93.40
42097;DHT22;27754;45.414;11.084;2023-12-07T02:43:53;1.40;93.30
42097;DHT22;27754;45.414;11.084;2023-12-07T02:46:21;1.40;93.40
42097;DHT22;27754;45.414;11.084;2023-12-07T02:48:48;1.40;93.40
42097;DHT22;27754;45.414;11.084;2023-12-07T02:51:15;1.40;93.50
42097;DHT22;27754;45.414;11.084;2023-12-07T02:53:42;1.40;93.60
42097;DHT22;27754;45.414;11.084;2023-12-07T02:56:09;1.40;93.60
42097;DHT22;27754;45.414;11.084;2023-12-07T02:58:36;1.40;93.60
42097;DHT22;27754;45.414;11.084;2023-12-07T03:01:03;1.40;93.40
42097;DHT22;27754;45.414;11.084;2023-12-07T03:03:31;1.40;93.20
42097;DHT22;27754;45.414;11.084;2023-12-07T03:05:58;1.30;92.80
42097;DHT22;27754;45.414;11.084;2023-12-07T03:08:25;1.10;92.50
42097;DHT22;27754;45.414;11.084;2023-12-07T03:10:52;1.10;92.50
42097;DHT22;27754;45.414;11.084;2023-12-07T03:13:19;1.00;92.50
42097;DHT22;27754;45.414;11.084;2023-12-07T03:15:46;0.90;92.60
42097;DHT22;27754;45.414;11.084;2023-12-07T03:18:13;0.90;92.80
42097;DHT22;27754;45.414;11.084;2023-12-07T03:20:40;0.90;92.90
42097;DHT22;27754;45.414;11.084;2023-12-07T03:23:08;0.90;93.00
42097;DHT22;27754;45.414;11.084;2023-12-07T03:25:35;0.90;93.00
42097;DHT22;27754;45.414;11.084;2023-12-07T03:28:02;0.90;93.10
42097;DHT22;27754;45.414;11.084;2023-12-07T03:30:29;0.90;93.20
42097;DHT22;27754;45.414;11.084;2023-12-07T03:32:56;1.00;93.40
42097;DHT22;27754;45.414;11.084;2023-12-07T03:35:23;1.00;93.40
42097;DHT22;27754;45.414;11.084;2023-12-07T03:37:50;1.00;93.20
42097;DHT22;27754;45.414;11.084;2023-12-07T03:40:17;0.90;93.00
42097;DHT22;27754;45.414;11.084;2023-12-07T03:42:44;0.90;93.00
42097;DHT22;27754;45.414;11.084;2023-12-07T03:45:22;1.00;93.40
42097;DHT22;27754;45.414;11.084;2023-12-07T03:47:49;1.00;93.30
42097;DHT22;27754;45.414;11.084;2023-12-07T03:50:16;1.00;93.40
42097;DHT22;27754;45.414;11.084;2023-12-07T03:52:43;1.00;93.50
42097;DHT22;27754;45.414;11.084;2023-12-07T03:55:11;1.00;93.50
42097;DHT22;27754;45.414;11.084;2023-12-07T03:57:38;0.90;93.50
42097;DHT22;27754;45.414;11.084;2023-12-07T04:00:06;1.00;93.50
42097;DHT22;27754;45.414;11.084;2023-12-07T04:02:36;0.90;93.50
42097;DHT22;27754;45.414;11.084;2023-12-07T04:05:03;0.90;93.60
42097;DHT22;27754;45.414;11.084;2023-12-07T04:07:31;0.90;93.60
42097;DHT22;27754;45.414;11.084;2023-12-07T04:09:58;0.90;93.50
42097;DHT22;27754;45.414;11.084;2023-12-07T04:12:25;0.80;93.50
42097;DHT22;27754;45.414;11.084;2023-12-07T04:14:52;0.80;93.40
42097;DHT22;27754;45.414;11.084;2023-12-07T04:17:19;0.70;93.30
42097;DHT22;27754;45.414;11.084;2023-12-07T04:19:46;0.60;93.50
42097;DHT22;27754;45.414;11.084;2023-12-07T04:22:13;0.60;93.50
42097;DHT22;27754;45.414;11.084;2023-12-07T04:24:40;0.50;93.40
42097;DHT22;27754;45.414;11.084;2023-12-07T04:27:07;0.50;93.40
42097;DHT22;27754;45.414;11.084;2023-12-07T04:29:34;0.50;93.50
42097;DHT22;27754;45.414;11.084;2023-12-07T04:32:02;0.50;93.70
42097;DHT22;27754;45.414;11.084;2023-12-07T04:34:29;0.50;93.90
42097;DHT22;27754;45.414;11.084;2023-12-07T04:36:57;0.50;94.00
42097;DHT22;27754;45.414;11.084;2023-12-07T04:39:24;0.40;93.70
42097;DHT22;27754;45.414;11.084;2023-12-07T04:41:51;0.40;93.70
42097;DHT22;27754;45.414;11.084;2023-12-07T04:44:18;0.40;93.90
42097;DHT22;27754;45.414;11.084;2023-12-07T04:46:46;0.40;94.10
42097;DHT22;27754;45.414;11.084;2023-12-07T04:49:13;0.30;94.00
42097;DHT22;27754;45.414;11.084;2023-12-07T04:51:40;0.30;94.20
42097;DHT22;27754;45.414;11.084;2023-12-07T04:54:09;0.40;94.30
42097;DHT22;27754;45.414;11.084;2023-12-07T04:56:45;0.40;94.50
42097;DHT22;27754;45.414;11.084;2023-12-07T04:59:12;0.40;94.50
42097;DHT22;27754;45.414;11.084;2023-12-07T05:01:39;0.50;94.40
42097;DHT22;27754;45.414;11.084;2023-12-07T05:04:06;0.50;94.50
42097;DHT22;27754;45.414;11.084;2023-12-07T05:06:34;0.50;94.60
42097;DHT22;27754;45.414;11.084;2023-12-07T05:09:02;0.60;94.60
42097;DHT22;27754;45.414;11.084;2023-12-07T05:11:29;0.50;94.70
42097;DHT22;27754;45.414;11.084;2023-12-07T05:13:56;0.60;94.70
42097;DHT22;27754;45.414;11.084;2023-12-07T05:16:24;0.50;94.50
42097;DHT22;27754;45.414;11.084;2023-12-07T05:18:51;0.60;94.60
42097;DHT22;27754;45.414;11.084;2023-12-07T05:21:18;0.60;94.70
42097;DHT22;27754;45.414;11.084;2023-12-07T05:23:45;0.70;94.80
42097;DHT22;27754;45.414;11.084;2023-12-07T05:26:12;0.70;94.70
42097;DHT22;27754;45.414;11.084;2023-12-07T05:28:39;0.70;94.70
42097;DHT22;27754;45.414;11.084;2023-12-07T05:31:06;0.70;94.60
42097;DHT22;27754;45.414;11.084;2023-12-07T05:33:33;0.60;94.40
42097;DHT22;27754;45.414;11.084;2023-12-07T05:36:01;0.70;94.40
42097;DHT22;27754;45.414;11.084;2023-12-07T05:38:30;0.70;94.10
42097;DHT22;27754;45.414;11.084;2023-12-07T05:40:57;0.70;94.00
42097;DHT22;27754;45.414;11.084;2023-12-07T05:43:24;0.60;93.90
42097;DHT22;27754;45.414;11.084;2023-12-07T05:45:51;0.60;93.80
42097;DHT22;27754;45.414;11.084;2023-12-07T05:48:18;0.60;93.80
42097;DHT22;27754;45.414;11.084;2023-12-07T05:50:45;0.50;93.60
42097;DHT22;27754;45.414;11.084;2023-12-07T05:53:12;0.50;93.60
42097;DHT22;27754;45.414;11.084;2023-12-07T05:55:39;0.50;93.60
42097;DHT22;27754;45.414;11.084;2023-12-07T05:58:06;0.50;93.60
42097;DHT22;27754;45.414;11.084;2023-12-07T06:00:33;0.50;93.70
42097;DHT22;27754;45.414;11.084;2023-12-07T06:03:00;0.50;93.20
42097;DHT22;27754;45.414;11.084;2023-12-07T06:05:27;0.40;93.00
42097;DHT22;27754;45.414;11.084;2023-12-07T06:07:54;0.20;92.80
42097;DHT22;27754;45.414;11.084;2023-12-07T06:10:22;0.30;93.10
42097;DHT22;27754;45.414;11.084;2023-12-07T06:12:49;0.30;93.30
42097;DHT22;27754;45.414;11.084;2023-12-07T06:15:16;0.30;93.30
42097;DHT22;27754;45.414;11.084;2023-12-07T06:17:43;0.30;93.40
42097;DHT22;27754;45.414;11.084;2023-12-07T06:20:11;0.40;93.40
42097;DHT22;27754;45.414;11.084;2023-12-07T06:22:38;0.40;93.50
42097;DHT22;27754;45.414;11.084;2023-12-07T06:25:05;0.40;93.50
42097;DHT22;27754;45.414;11.084;2023-12-07T06:27:32;0.40;93.50
42097;DHT22;27754;45.414;11.084;2023-12-07T06:30:00;0.40;93.30
42097;DHT22;27754;45.414;11.084;2023-12-07T06:32:27;0.40;93.50
42097;DHT22;27754;45.414;11.084;2023-12-07T06:34:54;0.40;93.30
42097;DHT22;27754;45.414;11.084;2023-12-07T06:37:21;0.30;93.10
42097;DHT22;27754;45.414;11.084;2023-12-07T06:39:48;0.40;93.30
42097;DHT22;27754;45.414;11.084;2023-12-07T06:42:16;0.40;93.20
42097;DHT22;27754;45.414;11.084;2023-12-07T06:44:43;0.40;93.20
42097;DHT22;27754;45.414;11.084;2023-12-07T06:47:13;0.40;93.30
42097;DHT22;27754;45.414;11.084;2023-12-07T06:49:39;0.40;93.40
42097;DHT22;27754;45.414;11.084;2023-12-07T06:52:18;0.50;93.30
42097;DHT22;27754;45.414;11.084;2023-12-07T06:54:45;0.50;93.20
42097;DHT22;27754;45.414;11.084;2023-12-07T06:57:12;0.50;93.40
42097;DHT22;27754;45.414;11.084;2023-12-07T06:59:39;0.60;93.50
42097;DHT22;27754;45.414;11.084;2023-12-07T07:02:07;0.60;93.60
42097;DHT22;27754;45.414;11.084;2023-12-07T07:04:34;0.60;93.80
42097;DHT22;27754;45.414;11.084;2023-12-07T07:07:01;0.70;93.80
42097;DHT22;27754;45.414;11.084;2023-12-07T07:09:29;0.80;93.80
42097;DHT22;27754;45.414;11.084;2023-12-07T07:11:56;0.70;93.50
42097;DHT22;27754;45.414;11.084;2023-12-07T07:14:23;0.70;93.60
42097;DHT22;27754;45.414;11.084;2023-12-07T07:16:50;0.70;93.30
42097;DHT22;27754;45.414;11.084;2023-12-07T07:19:18;0.60;93.10
42097;DHT22;27754;45.414;11.084;2023-12-07T07:21:46;0.60;93.00
42097;DHT22;27754;45.414;11.084;2023-12-07T07:24:13;0.70;93.10
42097;DHT22;27754;45.414;11.084;2023-12-07T07:26:40;0.60;92.90
42097;DHT22;27754;45.414;11.084;2023-12-07T07:29:07;0.60;92.70
42097;DHT22;27754;45.414;11.084;2023-12-07T07:31:34;0.60;92.50
42097;DHT22;27754;45.414;11.084;2023-12-07T07:34:03;0.50;92.20
42097;DHT22;27754;45.414;11.084;2023-12-07T07:36:31;0.50;92.20
42097;DHT22;27754;45.414;11.084;2023-12-07T07:38:58;0.60;92.50
42097;DHT22;27754;45.414;11.084;2023-12-07T07:41:25;0.70;92.50
42097;DHT22;27754;45.414;11.084;2023-12-07T07:43:52;0.70;92.60
42097;DHT22;27754;45.414;11.084;2023-12-07T07:46:19;0.80;92.70
42097;DHT22;27754;45.414;11.084;2023-12-07T07:48:46;0.90;92.80
42097;DHT22;27754;45.414;11.084;2023-12-07T07:51:13;1.00;92.70
42097;DHT22;27754;45.414;11.084;2023-12-07T07:53:41;1.00;92.60
42097;DHT22;27754;45.414;11.084;2023-12-07T07:56:08;1.20;92.70
42097;DHT22;27754;45.414;11.084;2023-12-07T07:58:35;1.20;92.50
42097;DHT22;27754;45.414;11.084;2023-12-07T08:01:02;1.30;92.50
42097;DHT22;27754;45.414;11.084;2023-12-07T08:03:30;1.40;92.60
42097;DHT22;27754;45.414;11.084;2023-12-07T08:05:57;1.40;92.40
42097;DHT22;27754;45.414;11.084;2023-12-07T08:08:24;1.50;92.20
42097;DHT22;27754;45.414;11.084;2023-12-07T08:10:53;1.60;92.30
42097;DHT22;27754;45.414;11.084;2023-12-07T08:13:23;1.70;92.30
42097;DHT22;27754;45.414;11.084;2023-12-07T08:15:50;1.70;92.20
42097;DHT22;27754;45.414;11.084;2023-12-07T08:18:19;1.80;92.10
42097;DHT22;27754;45.414;11.084;2023-12-07T08:20:46;1.90;92.20
42097;DHT22;27754;45.414;11.084;2023-12-07T08:23:13;1.90;91.90
42097;DHT22;27754;45.414;11.084;2023-12-07T08:25:40;1.90;91.80
42097;DHT22;27754;45.414;11.084;2023-12-07T08:28:07;2.00;91.90
42097;DHT22;27754;45.414;11.084;2023-12-07T08:30:36;2.10;91.60
42097;DHT22;27754;45.414;11.084;2023-12-07T08:33:03;2.20;91.80
42097;DHT22;27754;45.414;11.084;2023-12-07T08:35:30;2.30;91.80
42097;DHT22;27754;45.414;11.084;2023-12-07T08:37:57;2.30;91.50
42097;DHT22;27754;45.414;11.084;2023-12-07T08:40:24;2.30;91.20
42097;DHT22;27754;45.414;11.084;2023-12-07T08:42:51;2.40;91.10
42097;DHT22;27754;45.414;11.084;2023-12-07T08:45:18;2.40;91.20
42097;DHT22;27754;45.414;11.084;2023-12-07T08:47:45;2.40;90.90
42097;DHT22;27754;45.414;11.084;2023-12-07T08:50:13;2.40;91.20
42097;DHT22;27754;45.414;11.084;2023-12-07T08:52:40;2.40;91.30
42097;DHT22;27754;45.414;11.084;2023-12-07T08:55:16;2.50;91.50
42097;DHT22;27754;45.414;11.084;2023-12-07T08:57:43;2.50;91.40
42097;DHT22;27754;45.414;11.084;2023-12-07T09:00:11;2.60;91.50
42097;DHT22;27754;45.414;11.084;2023-12-07T09:02:40;2.70;91.70
42097;DHT22;27754;45.414;11.084;2023-12-07T09:05:14;2.80;91.60
42097;DHT22;27754;45.414;11.084;2023-12-07T09:07:41;2.90;91.40
42097;DHT22;27754;45.414;11.084;2023-12-07T09:10:08;2.90;91.30
42097;DHT22;27754;45.414;11.084;2023-12-07T09:12:37;3.00;91.40
42097;DHT22;27754;45.414;11.084;2023-12-07T09:15:06;3.10;91.30
42097;DHT22;27754;45.414;11.084;2023-12-07T09:17:38;3.20;91.40
42097;DHT22;27754;45.414;11.084;2023-12-07T09:20:10;3.30;91.40
42097;DHT22;27754;45.414;11.084;2023-12-07T09:22:47;3.40;91.20
42097;DHT22;27754;45.414;11.084;2023-12-07T09:25:16;3.40;91.20
42097;DHT22;27754;45.414;11.084;2023-12-07T09:27:44;3.50;91.30
42097;DHT22;27754;45.414;11.084;2023-12-07T09:30:11;3.60;91.40
42097;DHT22;27754;45.414;11.084;2023-12-07T09:32:40;3.70;91.30
42097;DHT22;27754;45.414;11.084;2023-12-07T09:35:10;3.70;91.30
42097;DHT22;27754;45.414;11.084;2023-12-07T09:37:48;3.80;91.50
42097;DHT22;27754;45.414;11.084;2023-12-07T09:40:21;3.90;91.50
42097;DHT22;27754;45.414;11.084;2023-12-07T09:42:49;4.00;91.60
42097;DHT22;27754;45.414;11.084;2023-12-07T09:45:17;4.10;91.70
42097;DHT22;27754;45.414;11.084;2023-12-07T09:47:50;4.20;91.50
42097;DHT22;27754;45.414;11.084;2023-12-07T09:50:19;4.30;91.60
42097;DHT22;27754;45.414;11.084;2023-12-07T09:52:54;4.30;91.70
42097;DHT22;27754;45.414;11.084;2023-12-07T09:55:34;4.50;91.70
42097;DHT22;27754;45.414;11.084;2023-12-07T09:58:04;4.40;91.60
42097;DHT22;27754;45.414;11.084;2023-12-07T10:00:35;4.50;91.50
42097;DHT22;27754;45.414;11.084;2023-12-07T10:03:06;4.60;91.50
42097;DHT22;27754;45.414;11.084;2023-12-07T10:05:56;4.70;91.40
42097;DHT22;27754;45.414;11.084;2023-12-07T10:08:29;4.70;91.10
42097;DHT22;27754;45.414;11.084;2023-12-07T10:11:04;4.70;91.10
42097;DHT22;27754;45.414;11.084;2023-12-07T10:13:33;4.80;90.90
42097;DHT22;27754;45.414;11.084;2023-12-07T10:16:10;4.90;91.00
42097;DHT22;27754;45.414;11.084;2023-12-07T10:18:38;4.90;91.00
42097;DHT22;27754;45.414;11.084;2023-12-07T10:21:10;4.90;91.00
42097;DHT22;27754;45.414;11.084;2023-12-07T10:23:38;5.00;90.90
42097;DHT22;27754;45.414;11.084;2023-12-07T10:26:06;5.00;90.90
42097;DHT22;27754;45.414;11.084;2023-12-07T10:28:35;5.10;91.00
42097;DHT22;27754;45.414;11.084;2023-12-07T10:31:08;5.10;90.80
42097;DHT22;27754;45.414;11.084;2023-12-07T10:33:39;5.20;90.80
42097;DHT22;27754;45.414;11.084;2023-12-07T10:36:09;5.20;90.80
42097;DHT22;27754;45.414;11.084;2023-12-07T10:38:38;5.30;90.80
42097;DHT22;27754;45.414;11.084;2023-12-07T10:41:12;5.30;90.50
42097;DHT22;27754;45.414;11.084;2023-12-07T10:43:43;5.40;90.50
42097;DHT22;27754;45.414;11.084;2023-12-07T10:46:15;5.40;90.50
42097;DHT22;27754;45.414;11.084;2023-12-07T10:48:51;5.50;90.60
42097;DHT22;27754;45.414;11.084;2023-12-07T10:53:57;5.60;90.30
42097;DHT22;27754;45.414;11.084;2023-12-07T10:57:07;5.60;90.40
42097;DHT22;27754;45.414;11.084;2023-12-07T10:59:33;5.70;90.20
42097;DHT22;27754;45.414;11.084;2023-12-07T11:02:04;5.70;90.40
42097;DHT22;27754;45.414;11.084;2023-12-07T11:04:35;5.80;90.30
42097;DHT22;27754;45.414;11.084;2023-12-07T11:07:12;5.80;90.10
42097;DHT22;27754;45.414;11.084;2023-12-07T11:09:45;5.90;90.00
42097;DHT22;27754;45.414;11.084;2023-12-07T11:12:36;5.90;90.00
42097;DHT22;27754;45.414;11.084;2023-12-07T11:15:07;5.90;89.80
42097;DHT22;27754;45.414;11.084;2023-12-07T11:17:52;6.10;89.80
42097;DHT22;27754;45.414;11.084;2023-12-07T11:20:41;6.10;89.70
42097;DHT22;27754;45.414;11.084;2023-12-07T11:23:11;6.10;89.80
42097;DHT22;27754;45.414;11.084;2023-12-07T11:25:43;6.20;89.60
42097;DHT22;27754;45.414;11.084;2023-12-07T11:28:11;6.20;89.10
42097;DHT22;27754;45.414;11.084;2023-12-07T11:30:45;6.20;89.10
42097;DHT22;27754;45.414;11.084;2023-12-07T11:33:15;6.30;89.00
42097;DHT22;27754;45.414;11.084;2023-12-07T11:36:05;6.30;89.00
42097;DHT22;27754;45.414;11.084;2023-12-07T11:38:35;6.40;89.00
42097;DHT22;27754;45.414;11.084;2023-12-07T11:41:03;6.50;88.60
42097;DHT22;27754;45.414;11.084;2023-12-07T11:46:03;6.50;87.70
42097;DHT22;27754;45.414;11.084;2023-12-07T11:48:31;6.60;87.10
42097;DHT22;27754;45.414;11.084;2023-12-07T11:51:04;6.60;86.30
42097;DHT22;27754;45.414;11.084;2023-12-07T11:53:33;6.60;86.00
42097;DHT22;27754;45.414;11.084;2023-12-07T11:56:05;6.80;85.50
42097;DHT22;27754;45.414;11.084;2023-12-07T11:58:38;6.80;84.60
42097;DHT22;27754;45.414;11.084;2023-12-07T12:01:08;6.90;84.70
42097;DHT22;27754;45.414;11.084;2023-12-07T12:03:39;6.90;84.40
42097;DHT22;27754;45.414;11.084;2023-12-07T12:06:08;6.90;84.00
42097;DHT22;27754;45.414;11.084;2023-12-07T12:08:40;7.00;83.70
42097;DHT22;27754;45.414;11.084;2023-12-07T12:11:12;7.00;83.90
42097;DHT22;27754;45.414;11.084;2023-12-07T12:13:40;7.00;83.60
42097;DHT22;27754;45.414;11.084;2023-12-07T12:16:11;7.10;83.40
42097;DHT22;27754;45.414;11.084;2023-12-07T12:18:39;7.10;83.60
42097;DHT22;27754;45.414;11.084;2023-12-07T12:21:08;7.20;83.30
42097;DHT22;27754;45.414;11.084;2023-12-07T12:23:36;7.20;83.20
42097;DHT22;27754;45.414;11.084;2023-12-07T12:26:07;7.30;82.80
42097;DHT22;27754;45.414;11.084;2023-12-07T12:28:37;7.30;81.30
42097;DHT22;27754;45.414;11.084;2023-12-07T12:31:14;7.30;80.90
42097;DHT22;27754;45.414;11.084;2023-12-07T12:33:44;7.40;81.00
42097;DHT22;27754;45.414;11.084;2023-12-07T12:36:15;7.40;80.10
42097;DHT22;27754;45.414;11.084;2023-12-07T12:38:47;7.50;80.20
42097;DHT22;27754;45.414;11.084;2023-12-07T12:41:21;7.50;79.50
42097;DHT22;27754;45.414;11.084;2023-12-07T12:43:52;7.60;78.70
42097;DHT22;27754;45.414;11.084;2023-12-07T12:46:23;7.60;78.30
42097;DHT22;27754;45.414;11.084;2023-12-07T12:51:25;7.70;77.60
42097;DHT22;27754;45.414;11.084;2023-12-07T12:53:54;7.80;76.70
42097;DHT22;27754;45.414;11.084;2023-12-07T12:56:23;7.80;76.20
42097;DHT22;27754;45.414;11.084;2023-12-07T12:58:55;7.80;75.80
42097;DHT22;27754;45.414;11.084;2023-12-07T13:01:32;7.80;75.20
42097;DHT22;27754;45.414;11.084;2023-12-07T13:04:00;7.90;75.60
42097;DHT22;27754;45.414;11.084;2023-12-07T13:06:28;7.90;75.40
42097;DHT22;27754;45.414;11.084;2023-12-07T13:08:58;7.90;75.40
42097;DHT22;27754;45.414;11.084;2023-12-07T13:11:28;7.90;75.70
42097;DHT22;27754;45.414;11.084;2023-12-07T13:13:57;8.00;75.60
42097;DHT22;27754;45.414;11.084;2023-12-07T13:16:28;8.00;75.80
42097;DHT22;27754;45.414;11.084;2023-12-07T13:18:58;8.00;75.50
42097;DHT22;27754;45.414;11.084;2023-12-07T13:21:25;8.10;75.10
42097;DHT22;27754;45.414;11.084;2023-12-07T13:23:52;8.10;75.40
42097;DHT22;27754;45.414;11.084;2023-12-07T13:26:22;8.10;76.40
42097;DHT22;27754;45.414;11.084;2023-12-07T13:28:50;8.10;76.60
42097;DHT22;27754;45.414;11.084;2023-12-07T13:31:18;8.20;76.60
42097;DHT22;27754;45.414;11.084;2023-12-07T13:33:45;8.20;77.00
42097;DHT22;27754;45.414;11.084;2023-12-07T13:36:23;8.30;77.40
42097;DHT22;27754;45.414;11.084;2023-12-07T13:38:56;8.20;77.50
42097;DHT22;27754;45.414;11.084;2023-12-07T13:41:26;8.20;77.40
42097;DHT22;27754;45.414;11.084;2023-12-07T13:43:55;8.20;77.80
42097;DHT22;27754;45.414;11.084;2023-12-07T13:46:23;8.20;78.10
42097;DHT22;27754;45.414;11.084;2023-12-07T13:48:53;8.20;78.50
42097;DHT22;27754;45.414;11.084;2023-12-07T13:51:21;8.20;78.90
42097;DHT22;27754;45.414;11.084;2023-12-07T13:53:49;8.20;79.30
42097;DHT22;27754;45.414;11.084;2023-12-07T13:56:28;8.20;79.40
42097;DHT22;27754;45.414;11.084;2023-12-07T13:58:55;8.20;79.70
42097;DHT22;27754;45.414;11.084;2023-12-07T14:01:26;8.10;80.00
42097;DHT22;27754;45.414;11.084;2023-12-07T14:03:54;8.10;80.40
42097;DHT22;27754;45.414;11.084;2023-12-07T14:06:24;8.00;80.80
42097;DHT22;27754;45.414;11.084;2023-12-07T14:08:55;8.00;81.00
42097;DHT22;27754;45.414;11.084;2023-12-07T14:11:23;7.90;81.50
42097;DHT22;27754;45.414;11.084;2023-12-07T14:13:52;7.90;81.70
42097;DHT22;27754;45.414;11.084;2023-12-07T14:16:22;7.90;82.00
42097;DHT22;27754;45.414;11.084;2023-12-07T14:19:09;7.80;82.30
42097;DHT22;27754;45.414;11.084;2023-12-07T14:21:42;7.80;82.60
42097;DHT22;27754;45.414;11.084;2023-12-07T14:24:22;7.70;82.90
42097;DHT22;27754;45.414;11.084;2023-12-07T14:26:49;7.60;83.30
42097;DHT22;27754;45.414;11.084;2023-12-07T14:29:20;7.60;83.70
42097;DHT22;27754;45.414;11.084;2023-12-07T14:31:56;7.60;83.90
42097;DHT22;27754;45.414;11.084;2023-12-07T14:34:32;7.50;84.10
42097;DHT22;27754;45.414;11.084;2023-12-07T14:37:03;7.40;84.50
42097;DHT22;27754;45.414;11.084;2023-12-07T14:39:36;7.40;84.70
42097;DHT22;27754;45.414;11.084;2023-12-07T14:42:07;7.40;84.90
42097;DHT22;27754;45.414;11.084;2023-12-07T14:44:34;7.30;85.00
42097;DHT22;27754;45.414;11.084;2023-12-07T14:47:01;7.30;85.20
42097;DHT22;27754;45.414;11.084;2023-12-07T14:49:29;7.20;85.30
42097;DHT22;27754;45.414;11.084;2023-12-07T14:51:57;7.10;85.50
42097;DHT22;27754;45.414;11.084;2023-12-07T14:54:26;7.10;85.60
42097;DHT22;27754;45.414;11.084;2023-12-07T14:56:57;7.10;85.80
42097;DHT22;27754;45.414;11.084;2023-12-07T14:59:27;7.00;85.90
42097;DHT22;27754;45.414;11.084;2023-12-07T15:01:56;7.00;86.10
42097;DHT22;27754;45.414;11.084;2023-12-07T15:04:26;7.00;86.30
42097;DHT22;27754;45.414;11.084;2023-12-07T15:07:02;6.90;86.40
42097;DHT22;27754;45.414;11.084;2023-12-07T15:09:33;6.90;86.60
42097;DHT22;27754;45.414;11.084;2023-12-07T15:12:04;6.90;86.90
42097;DHT22;27754;45.414;11.084;2023-12-07T15:14:34;6.90;87.20
42097;DHT22;27754;45.414;11.084;2023-12-07T15:17:06;6.90;87.10
42097;DHT22;27754;45.414;11.084;2023-12-07T15:19:39;6.80;87.00
42097;DHT22;27754;45.414;11.084;2023-12-07T15:22:11;6.70;87.20
42097;DHT22;27754;45.414;11.084;2023-12-07T15:24:42;6.60;87.30
42097;DHT22;27754;45.414;11.084;2023-12-07T15:27:13;6.40;87.50
42097;DHT22;27754;45.414;11.084;2023-12-07T15:29:42;6.30;87.80
42097;DHT22;27754;45.414;11.084;2023-12-07T15:32:15;6.30;88.20
42097;DHT22;27754;45.414;11.084;2023-12-07T15:34:44;6.20;88.40
42097;DHT22;27754;45.414;11.084;2023-12-07T15:37:13;6.10;88.80
42097;DHT22;27754;45.414;11.084;2023-12-07T15:39:44;6.00;88.90
42097;DHT22;27754;45.414;11.084;2023-12-07T15:42:12;5.90;89.10
42097;DHT22;27754;45.414;11.084;2023-12-07T15:44:43;5.90;89.40
42097;DHT22;27754;45.414;11.084;2023-12-07T15:47:21;5.80;89.70
42097;DHT22;27754;45.414;11.084;2023-12-07T15:49:49;5.80;89.80